Bonpland, Argentina
Current Conditions -  °F | °C
As of 9:00 AM on Tuesday 27 Jan 2015 (Local Time) from SARL Reporting Station
Scattered Clouds Scattered Clouds  
Wind Chill: 86°   Ceiling: Unl
Heat Index: 97°   Visibility: 6mi
Dew Point: 77°   Wind: 2mph
Humidity: 74%   Direction: 20°NNE
Pressure: 29.83"   Gusts: NA
Location:  29.82°S, 57.43°W
Report Text: SARL 271200Z 02002KT 9999 FEW020 SCT20030/25 Q1010
Loading
Personal Weather Stations






























Interactive Weather Map New forecast layout! Learn more

10-Day Weather Forecast

Advertisements
Track Severe Weather on mobile